Time;durP1;ratioP1;P1;durP2;ratioP2;P2;SDS_P1;SDS_P2;PMS_P1;PMS_P2;Temp;Humidity;BMP_temperature;BMP_pressure;BME280_temperature;BME280_humidity;BME280_pressure;Samples;Min_cycle;Max_cycle;Signal;HPM_P1;HPM_P2
2021/03/29 00:00:29;;;;;;;3.00;2.90;;;;;;;7.91;62.84;102428.16;5322517;26;20410;-72
2021/03/29 00:02:54;;;;;;;2.83;2.72;;;;;;;7.95;61.92;102429.84;5324344;26;20150;-72
2021/03/29 00:05:21;;;;;;;3.08;2.95;;;;;;;7.93;62.59;102421.16;5324970;26;20062;-72
2021/03/29 00:07:48;;;;;;;2.87;2.78;;;;;;;8.00;62.29;102429.81;5319097;26;20039;-72
2021/03/29 00:10:14;;;;;;;3.08;2.97;;;;;;;8.01;62.33;102423.69;5320178;26;20078;-72
2021/03/29 00:12:42;;;;;;;2.90;2.80;;;;;;;7.99;62.67;102426.31;5336483;26;20548;-71
2021/03/29 00:15:08;;;;;;;3.10;3.00;;;;;;;7.97;61.94;102433.31;5338105;26;20043;-71
2021/03/29 00:17:35;;;;;;;2.90;2.80;;;;;;;7.96;62.94;102422.91;5314914;26;20630;-70
2021/03/29 00:20:00;;;;;;;3.70;3.40;;;;;;;7.94;63.07;102429.91;5337656;26;21006;-71
2021/03/29 00:22:25;;;;;;;2.80;2.70;;;;;;;7.94;63.04;102425.53;5336324;26;20059;-70
2021/03/29 00:24:51;;;;;;;2.92;2.83;;;;;;;7.94;62.25;102429.91;5338893;26;20058;-72
2021/03/29 00:27:16;;;;;;;3.30;3.10;;;;;;;7.98;62.09;102428.97;5337592;26;20497;-72
2021/03/29 00:29:42;;;;;;;3.00;2.90;;;;;;;7.96;62.98;102431.59;5337205;26;20039;-72
2021/03/29 00:32:07;;;;;;;2.90;2.80;;;;;;;7.94;62.81;102430.75;5338108;26;20385;-71
2021/03/29 00:34:32;;;;;;;3.28;3.17;;;;;;;7.88;63.19;102427.38;5338178;26;20053;-71
2021/03/29 00:36:58;;;;;;;3.15;3.05;;;;;;;7.83;62.76;102430.00;5336451;26;20058;-71
2021/03/29 00:39:23;;;;;;;2.97;2.87;;;;;;;7.38;63.40;102359.19;5338881;26;20040;-70
2021/03/29 00:41:49;;;;;;;2.90;2.80;;;;;;;7.70;63.30;102434.53;5337858;26;20073;-71
2021/03/29 00:44:14;;;;;;;2.80;2.70;;;;;;;7.64;63.70;102433.72;5338380;26;20047;-71
2021/03/29 00:46:40;;;;;;;2.90;2.80;;;;;;;7.46;62.92;102401.75;5338766;26;20491;-71
2021/03/29 00:49:05;;;;;;;2.83;2.72;;;;;;;7.51;63.37;102423.44;5336658;26;20055;-71
2021/03/29 00:51:32;;;;;;;2.75;2.65;;;;;;;7.47;63.41;102429.56;5337012;26;20040;-72
2021/03/29 00:53:59;;;;;;;2.92;2.83;;;;;;;7.47;63.55;102437.41;5338589;26;20039;-72
2021/03/29 00:56:24;;;;;;;2.80;2.70;;;;;;;7.38;64.09;102433.16;5336768;26;20027;-72
2021/03/29 00:58:50;;;;;;;2.90;2.80;;;;;;;7.30;64.06;102434.13;5337917;26;20122;-72
2021/03/29 01:01:17;;;;;;;2.78;2.67;;;;;;;7.22;64.47;102426.37;5337892;26;20090;-71
2021/03/29 01:03:46;;;;;;;3.10;3.00;;;;;;;7.16;65.18;102424.69;5338163;26;20039;-72
2021/03/29 01:06:16;;;;;;;2.80;2.70;;;;;;;7.14;64.71;102421.22;5337715;26;20295;-72
2021/03/29 01:08:44;;;;;;;2.70;2.60;;;;;;;7.08;64.87;102423.91;5339600;26;20061;-71
2021/03/29 01:11:11;;;;;;;2.90;2.80;;;;;;;7.00;64.79;102425.72;5338131;26;20044;-72
2021/03/29 01:13:42;;;;;;;2.90;2.80;;;;;;;6.95;65.18;102427.50;5337986;26;20091;-72
2021/03/29 01:16:07;;;;;;;2.80;2.70;;;;;;;6.92;65.44;102419.72;5338541;26;20390;-72
2021/03/29 01:18:33;;;;;;;3.10;3.00;;;;;;;6.88;65.48;102418.88;5336755;26;20050;-73
2021/03/29 01:21:11;;;;;;;2.80;2.70;;;;;;;6.83;65.66;102407.59;5337383;26;20133;-71
2021/03/29 01:23:36;;;;;;;2.92;2.83;;;;;;;6.83;65.71;102405.00;5337542;26;20502;-71
2021/03/29 01:26:17;;;;;;;2.97;2.87;;;;;;;6.81;65.76;102416.31;5336719;26;20077;-71
2021/03/29 01:28:43;;;;;;;2.80;2.70;;;;;;;6.76;66.06;102422.44;5356450;26;20054;-71
2021/03/29 01:31:08;;;;;;;3.22;3.12;;;;;;;6.67;66.57;102403.41;5335630;26;20085;-71
2021/03/29 01:33:33;;;;;;;2.70;2.60;;;;;;;6.73;66.29;102419.00;5336727;26;20532;-71
2021/03/29 01:35:59;;;;;;;2.90;2.80;;;;;;;6.71;66.40;102418.16;5338064;26;20043;-71
2021/03/29 01:38:26;;;;;;;3.20;3.10;;;;;;;6.69;66.51;102419.91;5337429;26;20035;-71
2021/03/29 01:40:51;;;;;;;2.92;2.83;;;;;;;6.69;66.57;102419.91;5337504;26;20042;-71
2021/03/29 01:43:16;;;;;;;2.70;2.60;;;;;;;6.72;66.79;102414.69;5319928;26;20093;-71
2021/03/29 01:45:42;;;;;;;2.87;2.78;;;;;;;6.72;66.50;102414.69;5321215;26;20043;-71
2021/03/29 01:48:08;;;;;;;2.62;2.53;;;;;;;6.67;66.60;102406.00;5323217;26;20046;-71
2021/03/29 01:50:35;;;;;;;2.60;2.50;;;;;;;6.72;66.77;102410.31;5321321;26;20072;-71
2021/03/29 01:53:01;;;;;;;2.78;2.67;;;;;;;6.69;66.66;102417.28;5323149;26;20047;-71
2021/03/29 01:55:28;;;;;;;2.62;2.53;;;;;;;6.61;66.67;102411.28;5323100;26;20050;-71
2021/03/29 01:57:53;;;;;;;2.60;2.50;;;;;;;6.54;66.62;102406.13;5319502;26;20075;-71
2021/03/29 02:00:23;;;;;;;2.90;2.80;;;;;;;6.48;67.02;102405.31;5318465;26;20050;-73
2021/03/29 02:02:48;;;;;;;2.60;2.50;;;;;;;6.38;67.52;102409.72;5337012;26;20035;-73
2021/03/29 02:05:14;;;;;;;2.70;2.60;;;;;;;6.01;67.95;102359.56;5338971;26;20045;-72
2021/03/29 02:07:41;;;;;;;2.80;2.70;;;;;;;6.22;67.92;102403.75;5320276;26;20043;-72
2021/03/29 02:10:11;;;;;;;2.62;2.53;;;;;;;6.11;68.41;102403.78;5338478;26;20720;-73
2021/03/29 02:12:37;;;;;;;2.70;2.60;;;;;;;6.11;68.73;102413.34;5338065;26;20434;-72
2021/03/29 02:15:04;;;;;;;2.75;2.65;;;;;;;6.05;68.72;102422.06;5339179;26;20356;-72
2021/03/29 02:17:29;;;;;;;2.70;2.60;;;;;;;6.01;69.04;102409.94;5339134;26;20043;-72
2021/03/29 02:19:54;;;;;;;3.00;2.90;;;;;;;5.99;69.28;102415.19;5340709;26;20598;-73
2021/03/29 02:22:20;;;;;;;2.78;2.67;;;;;;;5.98;69.30;102421.25;5342471;26;20058;-73
2021/03/29 02:24:45;;;;;;;2.83;2.72;;;;;;;5.95;69.10;102410.84;5339561;26;20038;-71
2021/03/29 02:27:10;;;;;;;3.10;3.00;;;;;;;5.63;69.15;102366.66;5337877;26;20040;-70
2021/03/29 02:29:36;;;;;;;2.80;2.70;;;;;;;5.87;69.40;102407.38;5337350;26;20470;-71
2021/03/29 02:32:02;;;;;;;2.70;2.60;;;;;;;5.87;69.15;102407.38;5338033;26;20047;-71
2021/03/29 02:34:28;;;;;;;2.70;2.60;;;;;;;5.76;69.43;102396.16;5357633;26;20035;-71
2021/03/29 02:36:53;;;;;;;2.90;2.80;;;;;;;5.85;69.12;102413.47;5337539;26;20036;-72
2021/03/29 02:39:19;;;;;;;2.72;2.62;;;;;;;5.66;69.33;102389.25;5339373;26;20113;-70
2021/03/29 02:41:45;;;;;;;2.50;2.40;;;;;;;5.79;69.65;102422.16;5338160;26;20572;-71
2021/03/29 02:44:11;;;;;;;2.90;2.80;;;;;;;5.80;69.83;102416.97;5338627;26;20062;-71
2021/03/29 02:46:36;;;;;;;2.60;2.50;;;;;;;5.26;69.55;102330.38;5338959;26;20044;-71
2021/03/29 02:49:03;;;;;;;3.20;2.90;;;;;;;5.80;69.89;102423.91;5338295;26;20505;-71
2021/03/29 02:51:29;;;;;;;2.55;2.45;;;;;;;5.80;69.58;102416.97;5335666;26;20273;-71
2021/03/29 02:53:56;;;;;;;2.80;2.70;;;;;;;5.85;69.15;102414.31;5339108;26;20053;-72
2021/03/29 02:56:24;;;;;;;2.70;2.60;;;;;;;5.83;69.16;102426.50;5336715;26;20088;-71
2021/03/29 02:58:55;;;;;;;2.50;2.40;;;;;;;5.78;69.29;102412.63;5339505;26;20140;-72
2021/03/29 03:01:25;;;;;;;3.15;3.03;;;;;;;5.74;68.95;102403.09;5339053;26;20500;-71
2021/03/29 03:03:51;;;;;;;2.70;2.60;;;;;;;4.82;69.20;102255.09;5337522;26;20057;-72
2021/03/29 03:06:16;;;;;;;2.60;2.50;;;;;;;5.78;69.35;102420.47;5337739;26;20458;-72
2021/03/29 03:08:42;;;;;;;2.70;2.60;;;;;;;5.79;69.18;102422.16;5337887;26;20042;-72
2021/03/29 03:11:11;;;;;;;2.50;2.40;;;;;;;5.80;69.20;102423.91;5336630;26;20330;-72
2021/03/29 03:13:37;;;;;;;2.70;2.60;;;;;;;5.79;69.13;102422.16;5339094;26;20116;-71
2021/03/29 03:16:04;;;;;;;3.10;3.00;;;;;;;5.66;68.95;102397.06;5338015;26;20703;-72
2021/03/29 03:18:29;;;;;;;2.70;2.60;;;;;;;5.80;68.92;102427.38;5337916;26;20512;-71
2021/03/29 03:20:55;;;;;;;2.72;2.62;;;;;;;5.80;69.03;102419.56;5338222;26;20043;-71
2021/03/29 03:23:20;;;;;;;2.60;2.50;;;;;;;5.79;68.88;102420.47;5318410;26;20374;-71
2021/03/29 03:25:47;;;;;;;2.60;2.50;;;;;;;5.80;69.04;102437.81;5320133;26;20043;-71
2021/03/29 03:28:15;;;;;;;2.47;2.37;;;;;;;5.78;68.87;102433.47;5323707;26;20059;-71
2021/03/29 03:30:44;;;;;;;2.70;2.60;;;;;;;5.80;68.94;102426.53;5321384;26;20066;-71
2021/03/29 03:33:10;;;;;;;2.70;2.60;;;;;;;5.78;68.96;102433.47;5323732;26;20492;-72
2021/03/29 03:35:37;;;;;;;2.60;2.50;;;;;;;5.78;68.97;102433.47;5323585;26;20051;-71
2021/03/29 03:38:24;;;;;;;2.50;2.40;;;;;;;5.75;69.06;102433.47;5322071;26;20035;-71
2021/03/29 03:40:53;;;;;;;2.70;2.60;;;;;;;5.71;69.04;102434.38;5341321;26;20045;-71
2021/03/29 03:43:20;;;;;;;2.80;2.70;;;;;;;5.69;69.13;102439.59;5323054;26;20129;-71
2021/03/29 03:45:47;;;;;;;2.60;2.50;;;;;;;5.68;68.89;102429.19;5321654;26;20027;-72
2021/03/29 03:48:13;;;;;;;2.80;2.60;;;;;;;5.66;69.27;102429.19;5323670;26;20031;-71
2021/03/29 03:50:39;;;;;;;2.60;2.50;;;;;;;5.64;69.25;102430.06;5320921;26;20035;-71
2021/03/29 03:53:04;;;;;;;2.67;2.58;;;;;;;5.61;68.98;102428.31;5320292;26;20053;-71
2021/03/29 03:55:30;;;;;;;2.60;2.50;;;;;;;4.63;68.85;102264.66;5322837;26;20045;-71
2021/03/29 03:57:55;;;;;;;2.70;2.60;;;;;;;5.57;69.38;102418.78;5321196;26;20054;-72
2021/03/29 04:00:21;;;;;;;2.80;2.70;;;;;;;5.57;69.52;102426.59;5322013;26;20047;-71
2021/03/29 04:02:48;;;;;;;2.60;2.50;;;;;;;5.57;69.72;102437.00;5318222;26;20088;-71
2021/03/29 04:05:14;;;;;;;2.60;2.50;;;;;;;5.34;69.75;102392.84;5318031;26;20125;-71
2021/03/29 04:07:40;;;;;;;2.65;2.55;;;;;;;5.34;69.56;102374.62;5318061;26;20379;-72
2021/03/29 04:10:19;;;;;;;2.60;2.50;;;;;;;5.65;69.50;102423.97;5318696;26;20127;-71
2021/03/29 04:12:47;;;;;;;2.65;2.55;;;;;;;5.68;70.09;102426.59;5319826;26;20096;-73
2021/03/29 04:15:13;;;;;;;2.50;2.40;;;;;;;5.69;69.12;102423.97;5319195;26;20054;-71
2021/03/29 04:17:38;;;;;;;2.70;2.60;;;;;;;5.71;69.42;102427.44;5318186;26;20166;-71
2021/03/29 04:20:05;;;;;;;2.60;2.50;;;;;;;5.65;69.19;102418.75;5317460;26;20591;-71
2021/03/29 04:22:30;;;;;;;2.80;2.70;;;;;;;5.65;69.65;102435.25;5318189;26;20484;-73
2021/03/29 04:24:56;;;;;;;2.60;2.50;;;;;;;5.60;69.39;102439.63;5318637;26;20098;-71
2021/03/29 04:27:21;;;;;;;2.85;2.75;;;;;;;5.53;69.62;102444.00;5329693;26;20053;-71
2021/03/29 04:29:46;;;;;;;2.80;2.70;;;;;;;5.43;69.96;102442.25;5318235;26;20580;-73
2021/03/29 04:32:12;;;;;;;2.75;2.65;;;;;;;5.34;70.48;102437.09;5328015;26;20057;-71
2021/03/29 04:34:37;;;;;;;2.72;2.62;;;;;;;4.87;70.31;102376.47;5316906;26;20039;-73
2021/03/29 04:37:02;;;;;;;2.58;2.47;;;;;;;5.17;70.84;102438.00;5327865;26;20027;-71
2021/03/29 04:39:28;;;;;;;2.72;2.62;;;;;;;5.11;71.07;102444.94;5336141;26;20504;-73
2021/03/29 04:41:53;;;;;;;2.40;2.30;;;;;;;5.06;71.40;102442.34;5336392;26;20110;-70
2021/03/29 04:44:19;;;;;;;2.55;2.45;;;;;;;5.02;71.24;102434.56;5337506;26;20053;-71
2021/03/29 04:46:44;;;;;;;2.58;2.47;;;;;;;5.02;70.93;102439.75;5329023;26;20271;-70
2021/03/29 04:49:09;;;;;;;2.60;2.50;;;;;;;4.94;72.09;102432.81;5318894;26;20035;-71
2021/03/29 04:51:35;;;;;;;2.70;2.60;;;;;;;4.99;71.69;102441.50;5323393;26;20077;-71
2021/03/29 04:54:00;;;;;;;2.70;2.60;;;;;;;4.98;71.64;102437.16;5315921;26;20057;-70
2021/03/29 04:56:25;;;;;;;2.60;2.50;;;;;;;4.95;72.25;102437.16;5321688;26;20043;-73
2021/03/29 04:58:51;;;;;;;2.75;2.65;;;;;;;4.97;72.12;102445.84;5318479;26;20357;-71
2021/03/29 05:01:16;;;;;;;2.70;2.60;;;;;;;4.98;71.89;102438.88;5318914;26;20032;-70
2021/03/29 05:03:41;;;;;;;2.50;2.40;;;;;;;4.97;71.74;102451.03;5337433;26;20046;-71
2021/03/29 05:06:07;;;;;;;2.50;2.40;;;;;;;5.00;72.13;102447.56;5336038;26;20092;-70
2021/03/29 05:08:32;;;;;;;2.70;2.60;;;;;;;5.03;71.76;102454.50;5316917;26;20055;-70
2021/03/29 05:10:57;;;;;;;2.60;2.50;;;;;;;5.07;71.79;102449.31;5318301;26;20038;-70
2021/03/29 05:13:23;;;;;;;2.80;2.70;;;;;;;5.01;71.38;102433.66;5317327;26;20128;-70
2021/03/29 05:15:48;;;;;;;2.70;2.60;;;;;;;5.18;71.37;102451.88;5317187;26;20038;-70
2021/03/29 05:18:13;;;;;;;2.60;2.50;;;;;;;4.92;71.46;102400.72;5322856;26;20769;-70
2021/03/29 05:20:39;;;;;;;2.60;2.50;;;;;;;5.28;71.76;102457.94;5322193;26;20107;-71
2021/03/29 05:23:04;;;;;;;2.50;2.40;;;;;;;5.34;71.28;102452.72;5321032;26;20035;-70
2021/03/29 05:25:30;;;;;;;2.67;2.58;;;;;;;5.39;70.99;102464.88;5322652;26;20104;-71
2021/03/29 05:27:55;;;;;;;2.50;2.40;;;;;;;5.48;70.64;102460.50;5322577;26;20054;-71
2021/03/29 05:30:21;;;;;;;2.80;2.70;;;;;;;5.54;70.36;102468.28;5321052;26;20480;-71
2021/03/29 05:32:46;;;;;;;2.87;2.78;;;;;;;5.58;70.43;102457.84;5318677;26;20046;-71
2021/03/29 05:35:12;;;;;;;2.55;2.45;;;;;;;5.55;70.11;102457.00;5318846;26;20486;-71
2021/03/29 05:37:37;;;;;;;2.60;2.50;;;;;;;5.66;70.01;102463.03;5317728;26;20054;-71
2021/03/29 05:40:03;;;;;;;2.40;2.30;;;;;;;5.70;70.13;102475.19;5319008;26;20049;-70
2021/03/29 05:42:29;;;;;;;2.53;2.42;;;;;;;5.72;70.27;102475.19;5318902;26;20589;-68
2021/03/29 05:45:08;;;;;;;2.78;2.67;;;;;;;5.79;69.65;102476.88;5318171;26;20039;-71
2021/03/29 05:47:34;;;;;;;2.60;2.50;;;;;;;5.78;69.63;102478.63;5319065;26;20323;-71
2021/03/29 05:49:59;;;;;;;2.60;2.50;;;;;;;5.90;69.26;102485.53;5318685;26;20129;-70
2021/03/29 05:52:25;;;;;;;2.70;2.60;;;;;;;5.85;69.63;102481.22;5317185;26;20291;-71
2021/03/29 05:54:50;;;;;;;2.80;2.58;;;;;;;5.85;69.54;102479.47;5316629;26;20096;-71
2021/03/29 05:57:17;;;;;;;2.40;2.30;;;;;;;5.93;69.27;102497.69;5329756;26;20103;-71
2021/03/29 05:59:42;;;;;;;2.90;2.80;;;;;;;5.93;69.34;102498.56;5317896;26;20043;-71
2021/03/29 06:02:09;;;;;;;2.60;2.50;;;;;;;5.95;69.41;102496.84;5328136;26;20084;-71
2021/03/29 06:04:47;;;;;;;2.50;2.40;;;;;;;5.96;69.08;102495.97;5318617;26;20166;-70
2021/03/29 06:07:19;;;;;;;2.60;2.50;;;;;;;5.97;69.54;102497.72;5335778;26;20047;-71
2021/03/29 06:09:45;;;;;;;2.50;2.40;;;;;;;6.03;69.30;102501.16;5355492;26;20519;-71
2021/03/29 06:12:12;;;;;;;2.60;2.50;;;;;;;6.10;69.84;102508.09;5336321;26;20031;-71
2021/03/29 06:14:37;;;;;;;2.60;2.50;;;;;;;6.21;69.30;102529.75;5354463;26;20370;-71
2021/03/29 06:17:08;;;;;;;2.62;2.53;;;;;;;6.31;69.00;102501.88;5339917;26;20043;-70
2021/03/29 06:19:53;;;;;;;2.70;2.60;;;;;;;6.43;68.82;102506.16;5341044;26;20238;-70
2021/03/29 06:22:32;;;;;;;2.60;2.50;;;;;;;6.61;68.12;102506.03;5325605;26;20133;-72
2021/03/29 06:25:18;;;;;;;2.60;2.50;;;;;;;6.74;67.31;102512.06;5319771;26;20399;-68
2021/03/29 06:27:45;;;;;;;2.85;2.75;;;;;;;6.82;67.25;102506.78;5340193;26;20145;-70
2021/03/29 06:30:27;;;;;;;2.70;2.60;;;;;;;6.94;67.09;102511.91;5339646;26;20650;-71
2021/03/29 06:33:12;;;;;;;2.70;2.60;;;;;;;7.04;66.65;102516.19;5319842;26;20109;-72
2021/03/29 06:35:49;;;;;;;2.70;2.60;;;;;;;7.15;66.32;102519.56;5317679;26;20626;-71
2021/03/29 06:38:19;;;;;;;2.70;2.60;;;;;;;7.25;65.91;102527.31;5336890;26;20053;-71
2021/03/29 06:40:50;;;;;;;2.72;2.62;;;;;;;7.35;65.72;102521.13;5318574;26;20061;-71
2021/03/29 06:43:16;;;;;;;3.00;2.80;;;;;;;7.49;65.41;102526.22;5358596;26;20031;-71
2021/03/29 06:45:41;;;;;;;2.80;2.70;;;;;;;7.61;65.34;102520.88;5339929;26;20544;-71
2021/03/29 06:48:38;;;;;;;3.00;2.90;;;;;;;7.77;64.31;102524.19;5322767;26;20090;-71
2021/03/29 06:51:18;;;;;;;2.80;2.70;;;;;;;7.93;64.53;102527.50;5321249;26;20049;-71
2021/03/29 06:53:55;;;;;;;2.70;2.60;;;;;;;8.07;64.60;102535.16;5322112;26;20035;-71
2021/03/29 06:56:22;;;;;;;3.20;3.10;;;;;;;8.24;63.68;102534.94;5334420;26;20474;-71
2021/03/29 06:58:52;;;;;;;2.90;2.80;;;;;;;8.41;62.82;102532.13;5335228;26;20058;-71
2021/03/29 07:01:22;;;;;;;2.80;2.70;;;;;;;8.54;63.04;102528.50;5336601;26;20070;-71
2021/03/29 07:03:48;;;;;;;3.10;3.00;;;;;;;8.66;62.72;102530.94;5356475;26;20038;-69
2021/03/29 07:06:17;;;;;;;2.80;2.70;;;;;;;8.84;62.85;102534.13;5340834;26;20064;-69
2021/03/29 07:08:44;;;;;;;2.90;2.80;;;;;;;8.86;62.07;102516.66;5341798;26;20566;-71
2021/03/29 07:11:11;;;;;;;2.80;2.70;;;;;;;9.08;61.64;102527.66;5335853;26;20492;-69
2021/03/29 07:13:37;;;;;;;3.20;3.05;;;;;;;9.28;61.40;102533.44;5318755;26;20057;-70
2021/03/29 07:16:02;;;;;;;2.80;2.70;;;;;;;9.47;61.58;102526.09;5315261;26;20059;-69
2021/03/29 07:18:27;;;;;;;3.45;3.33;;;;;;;9.57;60.77;102525.03;5340198;26;20043;-71
2021/03/29 07:20:53;;;;;;;3.80;3.60;;;;;;;9.57;59.72;102496.19;5338493;26;20038;-70
2021/03/29 07:23:18;;;;;;;2.90;2.80;;;;;;;10.04;59.04;102537.25;5340889;26;20038;-68
2021/03/29 07:25:44;;;;;;;2.97;2.87;;;;;;;10.23;59.87;102535.97;5338471;26;20607;-67
2021/03/29 07:28:10;;;;;;;2.80;2.70;;;;;;;10.41;59.24;102526.03;5339422;26;20047;-69
2021/03/29 07:30:46;;;;;;;3.00;2.90;;;;;;;10.45;57.72;102519.81;5340897;26;20223;-69
2021/03/29 07:33:12;;;;;;;3.00;2.90;;;;;;;10.81;57.53;102535.59;5317071;26;20059;-69
2021/03/29 07:35:54;;;;;;;3.20;3.10;;;;;;;10.88;56.51;102531.91;5317836;26;20058;-69
2021/03/29 07:38:21;;;;;;;3.10;3.00;;;;;;;11.09;56.51;102525.28;5321775;26;20043;-71
2021/03/29 07:40:57;;;;;;;3.28;3.15;;;;;;;11.26;56.46;102535.37;5319872;26;20058;-71
2021/03/29 07:43:26;;;;;;;2.90;2.80;;;;;;;11.44;56.38;102536.66;5321393;26;20055;-69
2021/03/29 07:45:54;;;;;;;3.40;3.30;;;;;;;11.25;55.58;102491.59;5320189;26;20053;-69
2021/03/29 07:48:39;;;;;;;3.17;3.08;;;;;;;11.72;55.69;102545.53;5320240;26;20272;-70
2021/03/29 07:51:07;;;;;;;3.25;3.15;;;;;;;11.87;54.53;102544.25;5319438;26;20046;-69
2021/03/29 07:53:38;;;;;;;3.10;3.00;;;;;;;12.06;54.79;102541.13;5321177;26;20088;-69
2021/03/29 07:56:04;;;;;;;3.10;3.00;;;;;;;12.12;53.62;102546.22;5354330;26;20043;-67
2021/03/29 07:58:29;;;;;;;3.30;3.20;;;;;;;12.24;54.45;102547.63;5320037;26;20065;-67
2021/03/29 08:01:05;;;;;;;3.33;3.22;;;;;;;12.36;53.64;102550.75;5319614;26;20043;-71
2021/03/29 08:03:31;;;;;;;3.10;3.00;;;;;;;12.48;53.24;102552.16;5321126;26;20478;-68
2021/03/29 08:05:56;;;;;;;3.37;3.27;;;;;;;12.58;53.45;102545.69;5357590;26;20412;-68
2021/03/29 08:08:25;;;;;;;3.40;3.30;;;;;;;12.73;53.01;102554.91;5321419;26;20120;-67
2021/03/29 08:11:00;;;;;;;3.30;3.20;;;;;;;12.81;53.07;102548.50;5358658;26;20046;-68
2021/03/29 08:13:36;;;;;;;3.20;3.10;;;;;;;12.90;52.81;102554.34;5341048;26;20066;-68
2021/03/29 08:16:02;;;;;;;3.28;3.17;;;;;;;12.99;52.22;102555.84;5321851;26;20058;-68
2021/03/29 08:18:27;;;;;;;3.40;3.30;;;;;;;13.11;52.04;102554.53;5320515;26;20043;-69
2021/03/29 08:20:53;;;;;;;3.25;3.15;;;;;;;13.28;52.21;102546.94;5320545;26;20065;-68
2021/03/29 08:23:29;;;;;;;3.30;3.20;;;;;;;13.48;51.80;102542.81;5322315;26;20038;-68
2021/03/29 08:26:06;;;;;;;3.75;3.60;;;;;;;13.54;50.83;102542.59;5340129;26;20035;-69
2021/03/29 08:29:06;;;;;;;3.70;3.50;;;;;;;12.71;49.93;102379.37;5359514;26;20125;-68
2021/03/29 08:31:59;;;;;;;3.40;3.30;;;;;;;13.87;49.49;102548.44;5357628;26;20470;-68
2021/03/29 08:34:32;;;;;;;3.30;3.20;;;;;;;13.96;48.84;102549.88;5359087;26;20054;-68
2021/03/29 08:37:02;;;;;;;3.30;3.20;;;;;;;14.06;47.86;102547.75;5317686;26;20516;-71
2021/03/29 08:39:48;;;;;;;3.37;3.28;;;;;;;14.04;46.53;102537.25;5317531;26;20057;-66
2021/03/29 08:42:15;;;;;;;3.90;3.70;;;;;;;14.21;47.50;102551.59;5334904;26;20077;-70
2021/03/29 08:44:42;;;;;;;3.50;3.40;;;;;;;14.20;45.88;102550.75;5336619;26;20161;-69
2021/03/29 08:47:22;;;;;;;3.40;3.30;;;;;;;14.35;45.44;102554.56;5334820;26;20043;-69
2021/03/29 08:50:02;;;;;;;3.40;3.30;;;;;;;14.42;44.26;102550.78;5336057;26;20042;-71
2021/03/29 08:52:38;;;;;;;3.40;3.30;;;;;;;14.60;43.24;102549.25;5336209;26;20062;-70
2021/03/29 08:55:04;;;;;;;3.37;3.28;;;;;;;14.62;41.97;102547.41;5335818;26;20221;-69
2021/03/29 08:57:31;;;;;;;3.47;3.37;;;;;;;14.71;42.46;102544.41;5334665;26;20112;-69
2021/03/29 09:00:00;;;;;;;3.72;3.55;;;;;;;14.68;41.75;102541.84;5337040;26;20170;-69
2021/03/29 09:02:26;;;;;;;3.30;3.20;;;;;;;14.86;41.34;102564.06;5335393;26;20501;-68
2021/03/29 09:04:52;;;;;;;3.50;3.40;;;;;;;14.92;40.71;102560.31;5337716;26;20101;-67
2021/03/29 09:07:18;;;;;;;3.42;3.33;;;;;;;15.00;39.94;102560.84;5337165;26;20053;-68
2021/03/29 09:09:44;;;;;;;3.70;3.60;;;;;;;15.07;38.88;102556.16;5315552;26;20059;-68
2021/03/29 09:12:20;;;;;;;3.65;3.55;;;;;;;15.40;39.00;102571.56;5318966;26;20057;-68
2021/03/29 09:14:45;;;;;;;3.47;3.37;;;;;;;15.38;38.64;102574.25;5318867;26;20145;-69
2021/03/29 09:17:11;;;;;;;3.50;3.40;;;;;;;15.56;38.75;102564.69;5316671;26;20395;-68
2021/03/29 09:19:36;;;;;;;3.40;3.30;;;;;;;15.58;38.39;102575.19;5318691;26;20054;-69
2021/03/29 09:22:03;;;;;;;3.33;3.22;;;;;;;15.70;37.89;102569.37;5319073;26;20126;-69
2021/03/29 09:24:29;;;;;;;3.50;3.40;;;;;;;15.66;36.77;102571.28;5318642;26;20047;-68
2021/03/29 09:27:01;;;;;;;3.53;3.42;;;;;;;15.84;38.08;102577.59;5319511;26;20043;-69
2021/03/29 09:29:34;;;;;;;3.47;3.37;;;;;;;15.82;37.10;102578.59;5320132;26;20956;-69
2021/03/29 09:32:08;;;;;;;3.70;3.60;;;;;;;15.84;36.08;102569.66;5316778;26;20399;-69
2021/03/29 09:34:34;;;;;;;3.55;3.45;;;;;;;16.05;35.86;102574.91;5318056;26;20510;-69
2021/03/29 09:37:00;;;;;;;3.80;3.70;;;;;;;16.11;34.84;102582.56;5317344;26;20048;-69
2021/03/29 09:39:33;;;;;;;3.42;3.33;;;;;;;16.28;34.01;102572.06;5315927;26;20103;-67
2021/03/29 09:41:59;;;;;;;3.50;3.40;;;;;;;16.33;35.92;102580.66;5318372;26;20058;-67
2021/03/29 09:44:28;;;;;;;4.30;4.10;;;;;;;16.46;34.72;102570.34;5315520;26;20185;-67
2021/03/29 09:46:54;;;;;;;3.80;3.70;;;;;;;16.62;34.08;102567.84;5317335;26;20100;-67
2021/03/29 09:49:20;;;;;;;3.55;3.45;;;;;;;16.69;33.87;102571.88;5317739;26;20182;-68
2021/03/29 09:51:46;;;;;;;3.67;3.58;;;;;;;16.82;33.82;102569.56;5320968;26;20134;-69
2021/03/29 09:54:38;;;;;;;3.60;3.50;;;;;;;17.00;32.90;102577.53;5317229;26;20035;-69
2021/03/29 09:57:14;;;;;;;3.70;3.60;;;;;;;16.68;33.40;102506.56;5331054;26;20354;-69
2021/03/29 09:59:42;;;;;;;4.00;3.80;;;;;;;17.07;32.80;102581.59;5334281;26;20078;-68
2021/03/29 10:02:13;;;;;;;3.70;3.60;;;;;;;17.02;31.37;102579.19;5325782;26;20043;-68
2021/03/29 10:04:39;;;;;;;3.60;3.50;;;;;;;17.05;30.34;102592.28;5317578;26;20056;-68
2021/03/29 10:07:16;;;;;;;4.00;3.80;;;;;;;16.87;29.88;102578.13;5318434;26;20039;-67
2021/03/29 10:09:44;;;;;;;3.70;3.60;;;;;;;16.93;29.81;102579.63;5318169;26;20039;-69
2021/03/29 10:12:10;;;;;;;3.70;3.60;;;;;;;17.08;30.73;102592.16;5318706;26;20057;-69
2021/03/29 10:14:39;;;;;;;3.60;3.50;;;;;;;17.15;29.83;102588.22;5334834;26;20116;-69
2021/03/29 10:17:14;;;;;;;3.60;3.50;;;;;;;17.30;29.97;102580.47;5325764;26;20203;-69
2021/03/29 10:19:40;;;;;;;3.60;3.50;;;;;;;17.43;29.60;102583.34;5317243;26;20264;-70
2021/03/29 10:22:17;;;;;;;4.00;3.80;;;;;;;17.68;29.09;102572.28;5315026;26;20319;-68
2021/03/29 10:25:03;;;;;;;3.70;3.60;;;;;;;17.71;28.60;102585.44;5318834;26;20162;-68
2021/03/29 10:27:45;;;;;;;4.20;4.00;;;;;;;17.35;28.63;102587.22;5335071;26;20057;-66
2021/03/29 10:30:18;;;;;;;3.83;3.70;;;;;;;17.43;28.38;102583.34;5335481;26;20055;-70
2021/03/29 10:32:43;;;;;;;3.60;3.50;;;;;;;17.68;28.39;102580.25;5336288;26;20059;-70
2021/03/29 10:35:09;;;;;;;3.90;3.70;;;;;;;17.97;27.59;102588.53;5316749;26;20890;-70
2021/03/29 10:37:34;;;;;;;4.00;3.80;;;;;;;18.12;27.27;102593.00;5317377;26;20046;-71
2021/03/29 10:40:00;;;;;;;4.00;3.85;;;;;;;18.14;26.92;102597.31;5337336;26;20390;-71
2021/03/29 10:42:27;;;;;;;3.75;3.65;;;;;;;18.33;27.09;102585.69;5325735;26;20069;-70
2021/03/29 10:44:53;;;;;;;3.80;3.70;;;;;;;18.43;27.84;102589.56;5317873;26;20039;-71
2021/03/29 10:47:19;;;;;;;3.78;3.67;;;;;;;18.41;27.74;102590.59;5320053;26;20508;-71
2021/03/29 10:49:44;;;;;;;3.80;3.70;;;;;;;18.32;26.44;102590.16;5336938;26;20129;-71
2021/03/29 10:52:10;;;;;;;3.62;3.53;;;;;;;18.20;27.75;102585.50;5327601;26;20554;-71
2021/03/29 10:54:35;;;;;;;3.95;3.75;;;;;;;17.89;25.00;102531.37;5337475;26;20058;-67
2021/03/29 10:57:00;;;;;;;3.60;3.50;;;;;;;18.34;25.33;102582.97;5335415;26;20267;-70
2021/03/29 10:59:26;;;;;;;3.67;3.58;;;;;;;18.49;25.49;102581.22;5333803;26;20110;-70
2021/03/29 11:01:51;;;;;;;4.03;3.83;;;;;;;18.40;25.41;102589.75;5333594;26;20459;-70
2021/03/29 11:04:17;;;;;;;3.87;3.60;;;;;;;18.50;24.34;102587.41;5333888;26;20130;-70
2021/03/29 11:06:42;;;;;;;3.75;3.65;;;;;;;18.53;25.14;102595.22;5335835;26;20035;-68
2021/03/29 11:09:07;;;;;;;4.03;3.83;;;;;;;18.53;25.36;102588.09;5336927;26;20040;-70
2021/03/29 11:11:33;;;;;;;3.83;3.72;;;;;;;18.64;25.85;102583.97;5335360;26;20470;-70
2021/03/29 11:13:58;;;;;;;4.30;4.10;;;;;;;18.95;26.66;102577.81;5337079;26;20043;-70
2021/03/29 11:16:25;;;;;;;3.95;3.78;;;;;;;19.24;25.75;102583.22;5336388;26;20053;-70
2021/03/29 11:18:50;;;;;;;3.80;3.65;;;;;;;19.42;25.81;102584.78;5336666;26;20630;-70
2021/03/29 11:21:16;;;;;;;3.62;3.53;;;;;;;19.45;24.16;102581.97;5336021;26;20106;-68
2021/03/29 11:23:41;;;;;;;4.00;3.80;;;;;;;19.22;23.90;102585.13;5336780;26;20103;-68
2021/03/29 11:26:07;;;;;;;4.10;3.90;;;;;;;19.25;25.15;102585.81;5334519;26;20046;-68
2021/03/29 11:28:32;;;;;;;4.10;3.90;;;;;;;19.38;24.30;102574.44;5317743;26;20031;-67
2021/03/29 11:30:57;;;;;;;4.20;4.00;;;;;;;19.53;24.95;102573.53;5318696;26;20035;-67
2021/03/29 11:33:23;;;;;;;4.10;3.90;;;;;;;19.39;23.23;102561.03;5320079;26;20077;-68
2021/03/29 11:35:48;;;;;;;4.20;4.00;;;;;;;19.23;24.29;102574.41;5321509;26;20508;-68